createdAt,value
2017-05-07T00:00:02.681Z,14.35
2017-05-07T00:01:02.054Z,14.4
2017-05-07T00:02:02.665Z,14.32
2017-05-07T00:03:02.322Z,14.35
2017-05-07T00:04:02.313Z,14.28
2017-05-07T00:05:02.597Z,14.26
2017-05-07T00:06:02.380Z,14.35
2017-05-07T00:07:02.255Z,14.33
2017-05-07T00:08:02.545Z,14.26
2017-05-07T00:09:02.523Z,14.25
2017-05-07T00:10:02.499Z,14.29
2017-05-07T00:11:02.493Z,14.36
2017-05-07T00:12:02.474Z,14.1
2017-05-07T00:13:02.447Z,14.1
2017-05-07T00:14:02.436Z,14.18
2017-05-07T00:15:02.413Z,14.13
2017-05-07T00:16:02.400Z,14.14
2017-05-07T00:17:02.375Z,14.13
2017-05-07T00:18:02.051Z,14.13
2017-05-07T00:19:02.340Z,14.1
2017-05-07T00:20:02.314Z,14.11
2017-05-07T00:21:02.000Z,14.05
2017-05-07T00:22:01.673Z,14.13
2017-05-07T00:23:02.263Z,14.11
2017-05-07T00:24:02.251Z,14.1
2017-05-07T00:25:01.928Z,14.05
2017-05-07T00:26:02.019Z,14.11
2017-05-07T00:27:02.193Z,14.05
2017-05-07T00:28:01.933Z,14.11
2017-05-07T00:29:02.174Z,14
2017-05-07T00:30:02.151Z,14.1
2017-05-07T00:31:02.113Z,14.05
2017-05-07T00:32:02.090Z,14.05
2017-05-07T00:33:02.104Z,14.07
2017-05-07T00:34:02.056Z,13.95
2017-05-07T00:35:02.054Z,14.11
2017-05-07T00:36:02.032Z,14.05
2017-05-07T00:37:01.700Z,14.05
2017-05-07T00:38:01.992Z,13.95
2017-05-07T00:39:01.971Z,13.97
2017-05-07T00:40:01.343Z,13.92
2017-05-07T00:41:01.326Z,13.97
2017-05-07T00:42:01.632Z,13.92
2017-05-07T00:43:01.909Z,13.93
2017-05-07T00:44:01.612Z,13.92
2017-05-07T00:45:01.851Z,13.95
2017-05-07T00:46:01.851Z,13.96
2017-05-07T00:47:01.824Z,13.93
2017-05-07T00:48:01.503Z,13.92
2017-05-07T00:49:01.489Z,13.77
2017-05-07T00:50:01.777Z,13.81
2017-05-07T00:51:01.132Z,13.8
2017-05-07T00:52:01.431Z,13.95
2017-05-07T00:53:01.413Z,13.82
2017-05-07T00:54:01.418Z,13.8
2017-05-07T00:55:01.464Z,13.8
2017-05-07T00:56:01.351Z,13.89
2017-05-07T00:57:01.390Z,13.81
2017-05-07T00:58:01.313Z,13.89
2017-05-07T00:59:01.306Z,13.77
2017-05-07T01:00:01.592Z,13.67
2017-05-07T01:01:00.951Z,13.77
2017-05-07T01:02:01.551Z,13.81
2017-05-07T01:03:01.553Z,13.71
2017-05-07T01:04:01.223Z,13.77
2017-05-07T01:05:01.192Z,13.72
2017-05-07T01:06:01.470Z,13.74
2017-05-07T01:07:01.450Z,13.75
2017-05-07T01:08:01.436Z,13.8
2017-05-07T01:09:01.427Z,13.77
2017-05-07T01:10:01.406Z,13.72
2017-05-07T01:11:01.397Z,13.77
2017-05-07T01:12:01.062Z,13.78
2017-05-07T01:13:01.341Z,13.67
2017-05-07T01:14:01.011Z,13.72
2017-05-07T01:15:00.954Z,13.7
2017-05-07T01:16:00.982Z,13.71
2017-05-07T01:17:01.294Z,13.74
2017-05-07T01:18:01.262Z,13.67
2017-05-07T01:19:00.927Z,13.74
2017-05-07T01:20:00.603Z,13.75
2017-05-07T01:21:00.603Z,13.74
2017-05-07T01:22:01.182Z,13.75
2017-05-07T01:23:00.544Z,13.72
2017-05-07T01:24:00.842Z,13.78
2017-05-07T01:25:01.123Z,13.72
2017-05-07T01:26:00.503Z,13.75
2017-05-07T01:27:00.790Z,13.7
2017-05-07T01:28:01.065Z,13.7
2017-05-07T01:29:01.055Z,13.74
2017-05-07T01:30:01.054Z,13.78
2017-05-07T01:31:01.023Z,13.6
2017-05-07T01:32:01.002Z,13.67
2017-05-07T01:33:00.972Z,13.65
2017-05-07T01:34:00.355Z,13.63
2017-05-07T01:35:00.324Z,13.62
2017-05-07T01:36:00.922Z,13.6
2017-05-07T01:37:00.595Z,13.66
2017-05-07T01:38:00.883Z,13.57
2017-05-07T01:39:00.560Z,13.65
2017-05-07T01:40:00.385Z,13.56
2017-05-07T01:41:00.203Z,13.53
2017-05-07T01:42:00.572Z,13.57
2017-05-07T01:43:00.482Z,13.53
2017-05-07T01:44:00.535Z,13.6
2017-05-07T01:45:00.761Z,13.45
2017-05-07T01:46:00.129Z,13.47
2017-05-07T01:47:00.422Z,13.33
2017-05-07T01:48:00.144Z,13.44
2017-05-07T01:49:00.702Z,13.4
2017-05-07T01:50:00.348Z,13.42
2017-05-07T01:51:00.342Z,13.38
2017-05-07T01:52:00.614Z,13.41
2017-05-07T01:53:00.312Z,13.21
2017-05-07T01:54:00.301Z,13.15
2017-05-07T01:55:00.307Z,13.04
2017-05-07T01:56:00.546Z,13.14
2017-05-07T01:57:00.222Z,13.08
2017-05-07T01:58:00.502Z,13.1
2017-05-07T01:59:00.243Z,13.08
2017-05-07T02:00:00.503Z,13.06
2017-05-07T02:01:00.452Z,13.14
2017-05-07T02:02:00.434Z,13.1
2017-05-07T02:03:00.405Z,13.19
2017-05-07T02:04:00.396Z,13.21
2017-05-07T02:05:00.395Z,13.23
2017-05-07T02:06:00.365Z,13.25
2017-05-07T02:07:00.038Z,13.31
2017-05-07T02:08:00.325Z,13.15
2017-05-07T02:09:00.063Z,13.25
2017-05-07T02:10:00.080Z,13.19
2017-05-07T02:10:59.652Z,13.21
2017-05-07T02:12:00.241Z,13.16
2017-05-07T02:13:00.240Z,13.19
2017-05-07T02:14:00.208Z,13
2017-05-07T02:14:59.905Z,13.11
2017-05-07T02:16:00.176Z,13.06
2017-05-07T02:17:00.153Z,13.11
2017-05-07T02:18:00.134Z,13.11
2017-05-07T02:19:00.121Z,13.18
2017-05-07T02:19:59.793Z,13.1
2017-05-07T02:20:59.829Z,13.18
2017-05-07T02:22:00.061Z,13.03
2017-05-07T02:22:59.794Z,13.01
2017-05-07T02:23:59.715Z,13.06
2017-05-07T02:25:00.013Z,13.06
2017-05-07T02:25:59.988Z,13
2017-05-07T02:26:59.966Z,13
2017-05-07T02:27:59.950Z,13.04
2017-05-07T02:28:59.716Z,13
2017-05-07T02:29:59.289Z,12.82
2017-05-07T02:30:59.293Z,12.74
2017-05-07T02:31:59.862Z,12.73
2017-05-07T02:32:59.242Z,12.71
2017-05-07T02:33:59.522Z,12.83
2017-05-07T02:34:59.213Z,12.83
2017-05-07T02:35:59.491Z,12.79
2017-05-07T02:36:59.471Z,12.7
2017-05-07T02:37:59.438Z,12.85
2017-05-07T02:38:59.750Z,12.67
2017-05-07T02:39:59.712Z,12.68
2017-05-07T02:40:59.393Z,12.76
2017-05-07T02:41:59.681Z,12.7
2017-05-07T02:42:59.664Z,12.71
2017-05-07T02:43:59.672Z,12.63
2017-05-07T02:44:59.347Z,12.64
2017-05-07T02:45:59.593Z,12.6
2017-05-07T02:46:58.974Z,12.6
2017-05-07T02:47:59.255Z,12.53
2017-05-07T02:48:59.547Z,12.49
2017-05-07T02:49:59.213Z,12.5
2017-05-07T02:50:59.200Z,12.53
2017-05-07T02:51:59.492Z,12.58
2017-05-07T02:52:59.168Z,12.61
2017-05-07T02:53:59.451Z,12.65
2017-05-07T02:54:59.425Z,12.65
2017-05-07T02:55:59.417Z,12.68
2017-05-07T02:56:58.793Z,12.67
2017-05-07T02:57:59.064Z,12.71
2017-05-07T02:58:59.054Z,12.65
2017-05-07T02:59:59.343Z,12.78
2017-05-07T03:00:59.008Z,12.76
2017-05-07T03:01:59.283Z,12.82
2017-05-07T03:02:58.974Z,12.82
2017-05-07T03:03:58.643Z,12.74
2017-05-07T03:04:58.936Z,12.76
2017-05-07T03:05:58.913Z,12.76
2017-05-07T03:06:58.884Z,12.76
2017-05-07T03:07:59.183Z,12.71
2017-05-07T03:08:59.192Z,12.65
2017-05-07T03:09:58.853Z,12.53
2017-05-07T03:10:58.813Z,12.6
2017-05-07T03:11:59.097Z,12.57
2017-05-07T03:12:58.783Z,12.48
2017-05-07T03:13:59.085Z,12.43
2017-05-07T03:14:59.051Z,12.48
2017-05-07T03:15:59.022Z,12.49
2017-05-07T03:16:58.711Z,12.5
2017-05-07T03:17:58.742Z,12.5
2017-05-07T03:18:59.015Z,12.5
2017-05-07T03:19:58.958Z,12.43
2017-05-07T03:20:58.929Z,12.37
2017-05-07T03:21:58.916Z,12.3
2017-05-07T03:22:58.605Z,12.46
2017-05-07T03:23:58.314Z,12.42
2017-05-07T03:24:58.863Z,12.37
2017-05-07T03:25:58.832Z,12.45
2017-05-07T03:26:58.223Z,12.46
2017-05-07T03:27:58.546Z,12.32
2017-05-07T03:28:58.782Z,12.32
2017-05-07T03:29:58.206Z,12.45
2017-05-07T03:30:58.444Z,12.46
2017-05-07T03:31:58.485Z,12.39
2017-05-07T03:32:58.715Z,12.43
2017-05-07T03:33:58.684Z,12.42
2017-05-07T03:34:58.393Z,12.37
2017-05-07T03:35:58.347Z,12.48
2017-05-07T03:36:58.632Z,12.5
2017-05-07T03:37:58.342Z,12.45
2017-05-07T03:38:58.294Z,12.43
2017-05-07T03:39:58.573Z,12.4
2017-05-07T03:40:58.349Z,12.49
2017-05-07T03:41:58.525Z,12.5
2017-05-07T03:42:58.508Z,12.45
2017-05-07T03:43:58.506Z,12.46
2017-05-07T03:44:58.180Z,12.43
2017-05-07T03:45:58.162Z,12.48
2017-05-07T03:46:58.442Z,12.39
2017-05-07T03:47:58.133Z,12.28
2017-05-07T03:48:57.794Z,12.34
2017-05-07T03:49:58.072Z,12.28
2017-05-07T03:50:58.084Z,12.34
2017-05-07T03:51:58.029Z,12.31
2017-05-07T03:52:58.322Z,12.32
2017-05-07T03:53:58.033Z,12.37
2017-05-07T03:54:58.283Z,12.4
2017-05-07T03:55:57.956Z,12.45
2017-05-07T03:56:58.253Z,12.42
2017-05-07T03:57:57.914Z,12.35
2017-05-07T03:58:57.904Z,12.45
2017-05-07T03:59:57.943Z,12.37
2017-05-07T04:00:58.163Z,12.37
2017-05-07T04:01:57.833Z,12.32
2017-05-07T04:02:57.824Z,12.35
2017-05-07T04:03:58.117Z,12.35
2017-05-07T04:04:57.783Z,12.34
2017-05-07T04:05:57.767Z,12.39
2017-05-07T04:06:58.045Z,12.34
2017-05-07T04:07:58.033Z,12.45
2017-05-07T04:08:58.014Z,12.39
2017-05-07T04:09:58.003Z,12.37
2017-05-07T04:10:57.984Z,12.45
2017-05-07T04:11:57.962Z,12.48
2017-05-07T04:12:57.956Z,12.34
2017-05-07T04:13:57.924Z,12.23
2017-05-07T04:14:57.594Z,12.34
2017-05-07T04:15:57.260Z,12.34
2017-05-07T04:16:57.604Z,12.3
2017-05-07T04:17:57.843Z,12.31
2017-05-07T04:18:57.824Z,12.4
2017-05-07T04:19:57.798Z,12.35
2017-05-07T04:20:57.152Z,12.32
2017-05-07T04:21:57.754Z,12.39
2017-05-07T04:22:57.433Z,12.42
2017-05-07T04:23:57.719Z,12.43
2017-05-07T04:24:57.391Z,12.43
2017-05-07T04:25:57.684Z,12.49
2017-05-07T04:26:57.362Z,12.52
2017-05-07T04:27:57.336Z,12.5
2017-05-07T04:28:57.632Z,12.49
2017-05-07T04:29:57.603Z,12.46
2017-05-07T04:30:57.291Z,12.55
2017-05-07T04:31:57.572Z,12.57
2017-05-07T04:32:57.243Z,12.57
2017-05-07T04:33:57.224Z,12.55
2017-05-07T04:34:56.892Z,12.53
2017-05-07T04:35:57.186Z,12.61
2017-05-07T04:36:57.462Z,12.6
2017-05-07T04:37:57.452Z,12.5
2017-05-07T04:38:57.430Z,12.61
2017-05-07T04:39:57.114Z,12.58
2017-05-07T04:40:56.773Z,12.48
2017-05-07T04:41:57.372Z,12.48
2017-05-07T04:42:57.363Z,12.5
2017-05-07T04:43:57.330Z,12.49
2017-05-07T04:44:57.314Z,12.55
2017-05-07T04:45:57.303Z,12.61
2017-05-07T04:46:57.288Z,12.6
2017-05-07T04:47:56.959Z,12.71
2017-05-07T04:48:57.235Z,12.78
2017-05-07T04:49:57.221Z,12.78
2017-05-07T04:50:56.895Z,12.71
2017-05-07T04:51:56.882Z,12.73
2017-05-07T04:52:56.855Z,12.76
2017-05-07T04:53:56.572Z,12.71
2017-05-07T04:54:56.822Z,12.83
2017-05-07T04:55:57.109Z,12.9
2017-05-07T04:56:56.782Z,12.81
2017-05-07T04:57:57.073Z,12.76
2017-05-07T04:58:57.050Z,12.81
2017-05-07T04:59:57.033Z,12.82
2017-05-07T05:00:56.709Z,12.86
2017-05-07T05:01:56.712Z,12.94
2017-05-07T05:02:56.689Z,12.89
2017-05-07T05:03:56.756Z,13
2017-05-07T05:04:56.628Z,12.98
2017-05-07T05:05:56.315Z,12.96
2017-05-07T05:06:56.892Z,12.98
2017-05-07T05:07:56.872Z,12.98
2017-05-07T05:08:56.555Z,13.1
2017-05-07T05:09:56.324Z,12.97
2017-05-07T05:10:56.522Z,12.98
2017-05-07T05:11:56.802Z,13.11
2017-05-07T05:12:56.783Z,13
2017-05-07T05:13:56.159Z,13.11
2017-05-07T05:14:56.504Z,13.15
2017-05-07T05:15:56.433Z,13.14
2017-05-07T05:16:56.707Z,13.19
2017-05-07T05:17:56.688Z,13.11
2017-05-07T05:18:56.669Z,13.23
2017-05-07T05:19:56.653Z,13.22
2017-05-07T05:20:56.343Z,13.22
2017-05-07T05:21:56.611Z,13.18
2017-05-07T05:22:55.983Z,13.23
2017-05-07T05:23:56.592Z,13.26
2017-05-07T05:24:55.952Z,12.96
2017-05-07T05:25:56.546Z,13.1
2017-05-07T05:26:56.224Z,13.1
2017-05-07T05:27:55.892Z,13.1
2017-05-07T05:28:56.513Z,12.94
2017-05-07T05:29:56.468Z,12.86
2017-05-07T05:30:56.464Z,12.83
2017-05-07T05:31:56.443Z,13
2017-05-07T05:32:56.102Z,13.01
2017-05-07T05:33:56.404Z,13.16
2017-05-07T05:34:56.124Z,13.14
2017-05-07T05:35:56.073Z,13
2017-05-07T05:36:55.732Z,12.83
2017-05-07T05:37:55.713Z,12.81
2017-05-07T05:38:55.997Z,12.79
2017-05-07T05:39:56.283Z,12.82
2017-05-07T05:40:55.643Z,12.76
2017-05-07T05:41:55.629Z,12.83
2017-05-07T05:42:56.266Z,12.74
2017-05-07T05:43:56.026Z,12.78
2017-05-07T05:44:56.214Z,12.88
2017-05-07T05:45:55.557Z,12.79
2017-05-07T05:46:55.854Z,12.76
2017-05-07T05:47:55.834Z,12.83
2017-05-07T05:48:56.232Z,12.71
2017-05-07T05:49:55.484Z,12.76
2017-05-07T05:50:56.099Z,12.73
2017-05-07T05:51:55.763Z,12.82
2017-05-07T05:52:55.725Z,12.86
2017-05-07T05:53:55.714Z,12.85
2017-05-07T05:54:55.395Z,12.9
2017-05-07T05:55:55.981Z,12.81
2017-05-07T05:56:55.656Z,12.74
2017-05-07T05:57:55.953Z,12.73
2017-05-07T05:58:55.943Z,12.82
2017-05-07T05:59:55.913Z,12.82
2017-05-07T06:00:55.335Z,12.94
2017-05-07T06:01:55.578Z,13.03
2017-05-07T06:02:55.701Z,12.97
2017-05-07T06:03:55.532Z,12.96
2017-05-07T06:04:55.613Z,12.94
2017-05-07T06:05:55.995Z,13.03
2017-05-07T06:06:55.785Z,13.06
2017-05-07T06:07:55.760Z,13.21
2017-05-07T06:08:55.443Z,13.22
2017-05-07T06:09:55.123Z,13.38
2017-05-07T06:10:55.753Z,13.4
2017-05-07T06:11:55.432Z,13.38
2017-05-07T06:12:55.372Z,13.26
2017-05-07T06:13:55.405Z,13.52
2017-05-07T06:14:55.640Z,13.48
2017-05-07T06:15:55.314Z,13.53
2017-05-07T06:16:55.595Z,13.65
2017-05-07T06:17:55.583Z,13.66
2017-05-07T06:18:55.565Z,13.77
2017-05-07T06:19:55.556Z,13.77
2017-05-07T06:20:55.239Z,13.85
2017-05-07T06:21:55.519Z,13.84
2017-05-07T06:22:55.183Z,13.71
2017-05-07T06:23:55.469Z,13.63
2017-05-07T06:24:54.843Z,13.56
2017-05-07T06:25:55.432Z,13.57
2017-05-07T06:26:55.424Z,13.7
2017-05-07T06:27:55.094Z,13.66
2017-05-07T06:28:55.383Z,13.63
2017-05-07T06:29:55.401Z,13.72
2017-05-07T06:30:55.354Z,13.75
2017-05-07T06:31:54.720Z,13.75
2017-05-07T06:32:55.306Z,13.72
2017-05-07T06:33:55.306Z,13.66
2017-05-07T06:34:55.274Z,13.7
2017-05-07T06:35:55.256Z,13.63
2017-05-07T06:36:55.235Z,13.53
2017-05-07T06:37:55.229Z,13.6
2017-05-07T06:38:54.892Z,13.65
2017-05-07T06:39:54.986Z,13.66
2017-05-07T06:40:54.860Z,13.66
2017-05-07T06:41:55.154Z,13.74
2017-05-07T06:42:54.520Z,13.8
2017-05-07T06:43:54.860Z,13.81
2017-05-07T06:44:54.782Z,13.96
2017-05-07T06:45:54.882Z,13.95
2017-05-07T06:46:54.744Z,13.92
2017-05-07T06:47:54.520Z,13.9
2017-05-07T06:48:55.013Z,13.96
2017-05-07T06:49:55.065Z,13.89
2017-05-07T06:50:54.684Z,13.93
2017-05-07T06:51:55.041Z,13.85
2017-05-07T06:52:54.942Z,13.85
2017-05-07T06:53:54.682Z,13.84
2017-05-07T06:54:54.602Z,13.85
2017-05-07T06:55:54.981Z,13.81
2017-05-07T06:56:54.875Z,13.95
2017-05-07T06:57:54.287Z,13.9
2017-05-07T06:58:54.523Z,13.92
2017-05-07T06:59:54.531Z,13.92
2017-05-07T07:00:54.184Z,13.96
2017-05-07T07:01:54.541Z,14.05
2017-05-07T07:02:54.149Z,14.03
2017-05-07T07:03:54.232Z,14.1
2017-05-07T07:04:54.122Z,14.14
2017-05-07T07:05:54.415Z,14.18
2017-05-07T07:06:54.693Z,14.28
2017-05-07T07:07:54.383Z,14.25
2017-05-07T07:08:54.353Z,14.35
2017-05-07T07:09:54.724Z,14.35
2017-05-07T07:10:54.324Z,14.25
2017-05-07T07:11:54.334Z,14.36
2017-05-07T07:12:54.285Z,14.38
2017-05-07T07:13:54.587Z,14.44
2017-05-07T07:14:54.355Z,14.4
2017-05-07T07:15:53.933Z,14.47
2017-05-07T07:16:54.325Z,14.51
2017-05-07T07:17:54.194Z,14.46
2017-05-07T07:18:54.536Z,14.55
2017-05-07T07:19:54.521Z,14.6
2017-05-07T07:20:54.502Z,14.6
2017-05-07T07:21:54.550Z,14.57
2017-05-07T07:22:54.133Z,14.58
2017-05-07T07:23:54.084Z,14.7
2017-05-07T07:24:54.432Z,14.62
2017-05-07T07:25:54.363Z,14.68
2017-05-07T07:26:54.040Z,14.66
2017-05-07T07:27:54.035Z,14.65
2017-05-07T07:28:54.053Z,14.73
2017-05-07T07:29:53.975Z,14.79
2017-05-07T07:30:53.965Z,14.62
2017-05-07T07:31:53.955Z,14.58
2017-05-07T07:32:53.932Z,14.46
2017-05-07T07:33:53.913Z,14.54
2017-05-07T07:34:53.904Z,14.54
2017-05-07T07:35:54.231Z,14.68
2017-05-07T07:36:54.265Z,14.73
2017-05-07T07:37:54.252Z,14.8
2017-05-07T07:38:53.531Z,14.85
2017-05-07T07:39:53.819Z,14.82
2017-05-07T07:40:54.162Z,14.89
2017-05-07T07:41:53.784Z,14.84
2017-05-07T07:42:54.093Z,14.84
2017-05-07T07:43:53.741Z,14.94
2017-05-07T07:44:53.762Z,14.88
2017-05-07T07:45:53.694Z,14.85
2017-05-07T07:46:53.737Z,14.55
2017-05-07T07:47:53.981Z,14.62
2017-05-07T07:48:54.004Z,14.55
2017-05-07T07:49:54.063Z,14.6
2017-05-07T07:50:53.621Z,14.62
2017-05-07T07:51:53.915Z,14.58
2017-05-07T07:52:53.595Z,14.63
2017-05-07T07:53:53.930Z,14.7
2017-05-07T07:54:53.544Z,14.66
2017-05-07T07:55:53.848Z,14.75
2017-05-07T07:56:53.501Z,14.6
2017-05-07T07:57:53.802Z,14.63
2017-05-07T07:58:53.786Z,14.68
2017-05-07T07:59:53.921Z,14.66
2017-05-07T08:00:53.447Z,14.63
2017-05-07T08:01:53.741Z,14.79
2017-05-07T08:02:53.410Z,14.85
2017-05-07T08:03:53.392Z,14.79
2017-05-07T08:04:53.372Z,14.95
2017-05-07T08:05:53.684Z,15.1
2017-05-07T08:06:53.353Z,15.14
2017-05-07T08:07:53.645Z,15.12
2017-05-07T08:08:53.305Z,15.14
2017-05-07T08:09:53.664Z,15.06
2017-05-07T08:10:52.974Z,15.12
2017-05-07T08:11:53.247Z,15.2
2017-05-07T08:12:53.242Z,15.22
2017-05-07T08:13:53.537Z,15.29
2017-05-07T08:14:53.522Z,15.16
2017-05-07T08:15:53.493Z,15.2
2017-05-07T08:16:53.182Z,15.22
2017-05-07T08:17:53.159Z,15.34
2017-05-07T08:18:53.446Z,15.42
2017-05-07T08:19:53.422Z,15.46
2017-05-07T08:20:53.112Z,15.57
2017-05-07T08:21:53.091Z,15.68
2017-05-07T08:22:53.078Z,15.83
2017-05-07T08:23:53.060Z,15.9
2017-05-07T08:24:53.342Z,15.95
2017-05-07T08:25:53.027Z,16.02
2017-05-07T08:26:53.314Z,16.05
2017-05-07T08:27:53.301Z,16.17
2017-05-07T08:28:52.984Z,16.2
2017-05-07T08:29:52.980Z,16.12
2017-05-07T08:30:52.963Z,16.07
2017-05-07T08:31:53.232Z,15.98
2017-05-07T08:32:52.939Z,16.01
2017-05-07T08:33:53.205Z,15.9
2017-05-07T08:34:52.582Z,15.75
2017-05-07T08:35:53.173Z,15.72
2017-05-07T08:36:53.176Z,15.75
2017-05-07T08:37:53.161Z,15.71
2017-05-07T08:38:53.122Z,15.67
2017-05-07T08:39:52.806Z,15.6
2017-05-07T08:40:53.135Z,15.54
2017-05-07T08:41:53.086Z,15.52
2017-05-07T08:42:53.056Z,15.6
2017-05-07T08:43:53.053Z,15.76
2017-05-07T08:44:53.023Z,15.82
2017-05-07T08:45:53.007Z,15.94
2017-05-07T08:46:53.016Z,15.95
2017-05-07T08:47:52.672Z,15.97
2017-05-07T08:48:52.965Z,16
2017-05-07T08:49:52.966Z,16.08
2017-05-07T08:50:52.942Z,16.02
2017-05-07T08:51:52.931Z,16
2017-05-07T08:52:52.906Z,16.04
2017-05-07T08:53:52.919Z,16
2017-05-07T08:54:52.866Z,16.05
2017-05-07T08:55:52.534Z,16.05
2017-05-07T08:56:52.633Z,16.04
2017-05-07T08:57:52.825Z,16.08
2017-05-07T08:58:52.806Z,16.15
2017-05-07T08:59:52.772Z,16.12
2017-05-07T09:00:52.764Z,16.15
2017-05-07T09:01:52.439Z,16.13
2017-05-07T09:02:52.440Z,16.16
2017-05-07T09:03:52.433Z,16.16
2017-05-07T09:04:52.384Z,16.21
2017-05-07T09:05:52.690Z,16.21
2017-05-07T09:06:52.666Z,16.26
2017-05-07T09:07:52.357Z,16.21
2017-05-07T09:08:52.632Z,16.26
2017-05-07T09:09:52.609Z,16.24
2017-05-07T09:10:52.629Z,16.2
2017-05-07T09:11:51.972Z,16.07
2017-05-07T09:12:52.573Z,16.15
2017-05-07T09:13:52.251Z,16.27
2017-05-07T09:14:52.531Z,16.17
2017-05-07T09:15:52.534Z,16.24
2017-05-07T09:16:52.274Z,16.32
2017-05-07T09:17:52.201Z,16.31
2017-05-07T09:18:52.171Z,16.34
2017-05-07T09:19:52.452Z,16.27
2017-05-07T09:20:52.450Z,16.27
2017-05-07T09:21:52.199Z,16.34
2017-05-07T09:22:52.101Z,16.41
2017-05-07T09:23:52.383Z,16.36
2017-05-07T09:24:52.108Z,16.45
2017-05-07T09:25:52.354Z,16.45
2017-05-07T09:26:52.342Z,16.39
2017-05-07T09:27:52.022Z,16.27
2017-05-07T09:28:52.305Z,16.24
2017-05-07T09:29:51.692Z,16.27
2017-05-07T09:30:51.980Z,16.41
2017-05-07T09:31:52.014Z,16.6
2017-05-07T09:32:52.260Z,16.58
2017-05-07T09:33:52.073Z,16.71
2017-05-07T09:34:51.924Z,16.74
2017-05-07T09:35:51.898Z,16.81
2017-05-07T09:36:52.180Z,16.93
2017-05-07T09:37:52.164Z,16.96
2017-05-07T09:38:51.854Z,17.16
2017-05-07T09:39:52.127Z,17.26
2017-05-07T09:40:52.124Z,17.34
2017-05-07T09:41:52.116Z,17.44
2017-05-07T09:42:51.780Z,17.46
2017-05-07T09:43:51.770Z,17.45
2017-05-07T09:44:52.080Z,17.54
2017-05-07T09:45:51.773Z,17.83
2017-05-07T09:46:52.049Z,18.12
2017-05-07T09:47:51.712Z,18.25
2017-05-07T09:48:51.999Z,18.23
2017-05-07T09:49:51.994Z,18.29
2017-05-07T09:50:51.683Z,18.33
2017-05-07T09:51:52.001Z,18.48
2017-05-07T09:52:51.337Z,18.65
2017-05-07T09:53:51.969Z,18.69
2017-05-07T09:54:51.953Z,18.84
2017-05-07T09:55:51.617Z,18.87
2017-05-07T09:56:51.932Z,18.96
2017-05-07T09:57:51.886Z,19.04
2017-05-07T09:58:51.885Z,19.21
2017-05-07T09:59:51.550Z,19.44
2017-05-07T10:00:51.934Z,19.46
2017-05-07T10:01:51.842Z,19.53
2017-05-07T10:02:51.891Z,19.69
2017-05-07T10:03:51.835Z,19.81
2017-05-07T10:04:51.873Z,19.95
2017-05-07T10:05:51.485Z,19.96
2017-05-07T10:06:51.482Z,19.63
2017-05-07T10:07:51.151Z,19.55
2017-05-07T10:08:51.812Z,19.56
2017-05-07T10:09:51.441Z,19.52
2017-05-07T10:10:51.430Z,19.55
2017-05-07T10:11:51.721Z,19.56
2017-05-07T10:12:51.390Z,19.56
2017-05-07T10:13:51.682Z,19.63
2017-05-07T10:14:51.681Z,19.74
2017-05-07T10:15:51.358Z,19.71
2017-05-07T10:16:51.354Z,19.4
2017-05-07T10:17:51.650Z,19.52
2017-05-07T10:18:51.325Z,19.53
2017-05-07T10:19:51.614Z,19.71
2017-05-07T10:20:51.610Z,19.63
2017-05-07T10:21:51.334Z,19.55
2017-05-07T10:22:51.319Z,19.41
2017-05-07T10:23:51.557Z,19.43
2017-05-07T10:24:51.574Z,19.4
2017-05-07T10:25:51.243Z,19.3
2017-05-07T10:26:51.542Z,19.25
2017-05-07T10:27:51.512Z,19.23
2017-05-07T10:28:51.214Z,19.37
2017-05-07T10:29:51.200Z,19.52
2017-05-07T10:30:51.162Z,19.56
2017-05-07T10:31:51.471Z,19.56
2017-05-07T10:32:51.143Z,19.7
2017-05-07T10:33:51.122Z,19.85
2017-05-07T10:34:51.435Z,20.07
2017-05-07T10:35:51.422Z,20.17
2017-05-07T10:36:51.106Z,20.18
2017-05-07T10:37:51.077Z,20.29
2017-05-07T10:38:51.373Z,20.38
2017-05-07T10:39:51.371Z,20.23
2017-05-07T10:40:50.736Z,20.22
2017-05-07T10:41:51.336Z,20.25
2017-05-07T10:42:51.323Z,20.11
2017-05-07T10:43:51.324Z,20.18
2017-05-07T10:44:51.310Z,19.96
2017-05-07T10:45:50.709Z,20.18
2017-05-07T10:46:50.983Z,20.17
2017-05-07T10:47:51.012Z,20.22
2017-05-07T10:48:51.261Z,20.17
2017-05-07T10:49:51.023Z,20.33
2017-05-07T10:50:50.613Z,20.44
2017-05-07T10:51:51.250Z,20.54
2017-05-07T10:52:51.209Z,20.73
2017-05-07T10:53:50.898Z,20.91
2017-05-07T10:54:50.589Z,21.02
2017-05-07T10:55:51.171Z,20.95
2017-05-07T10:56:51.155Z,20.95
2017-05-07T10:57:51.165Z,21
2017-05-07T10:58:51.127Z,20.85
2017-05-07T10:59:51.180Z,21.07
2017-05-07T11:00:51.124Z,21.29
2017-05-07T11:01:51.182Z,21.33
2017-05-07T11:02:51.104Z,21.44
2017-05-07T11:03:51.089Z,21.61
2017-05-07T11:04:50.752Z,21.73
2017-05-07T11:05:51.075Z,21.93
2017-05-07T11:06:50.776Z,22.05
2017-05-07T11:07:51.074Z,22.24
2017-05-07T11:08:50.776Z,22.32
2017-05-07T11:09:51.118Z,22.25
2017-05-07T11:10:50.802Z,21.92
2017-05-07T11:11:50.996Z,22.12
2017-05-07T11:12:50.679Z,22.21
2017-05-07T11:13:50.663Z,22.42
2017-05-07T11:14:50.955Z,22.65
2017-05-07T11:15:50.972Z,22.59
2017-05-07T11:16:50.705Z,22.65
2017-05-07T11:17:50.774Z,22.76
2017-05-07T11:18:50.625Z,22.59
2017-05-07T11:19:50.902Z,22.21
2017-05-07T11:20:50.592Z,22.1
2017-05-07T11:21:50.791Z,21.77
2017-05-07T11:22:50.893Z,21.66
2017-05-07T11:23:50.944Z,21.31
2017-05-07T11:24:50.907Z,21.25
2017-05-07T11:25:50.547Z,21.22
2017-05-07T11:26:50.935Z,21.26
2017-05-07T11:27:50.819Z,21.28
2017-05-07T11:28:50.519Z,21.22
2017-05-07T11:29:50.525Z,21.28
2017-05-07T11:30:50.547Z,21.26
2017-05-07T11:31:50.785Z,21.31
2017-05-07T11:32:50.870Z,21.46
2017-05-07T11:33:50.792Z,21.47
2017-05-07T11:34:50.783Z,21.73
2017-05-07T11:35:50.745Z,21.99
2017-05-07T11:36:50.764Z,21.86
2017-05-07T11:37:50.719Z,21.96
2017-05-07T11:38:50.685Z,21.76
2017-05-07T11:39:50.694Z,21.7
2017-05-07T11:40:50.684Z,21.47
2017-05-07T11:41:50.687Z,21.46
2017-05-07T11:42:50.661Z,21.49
2017-05-07T11:43:50.658Z,21.59
2017-05-07T11:44:50.626Z,21.47
2017-05-07T11:45:50.617Z,21.4
2017-05-07T11:46:50.616Z,21.26
2017-05-07T11:47:50.623Z,21.29
2017-05-07T11:48:50.627Z,21.33
2017-05-07T11:49:50.380Z,21.31
2017-05-07T11:50:50.604Z,21.39
2017-05-07T11:51:50.632Z,21.54
2017-05-07T11:52:50.554Z,21.55
2017-05-07T11:53:50.572Z,21.61
2017-05-07T11:54:50.527Z,21.64
2017-05-07T11:55:50.530Z,21.49
2017-05-07T11:56:50.489Z,21.64
2017-05-07T11:57:50.478Z,21.76
2017-05-07T11:58:50.479Z,21.83
2017-05-07T11:59:50.470Z,21.8
2017-05-07T12:00:50.457Z,21.79
2017-05-07T12:01:50.434Z,21.88
2017-05-07T12:02:50.450Z,21.86
2017-05-07T12:03:50.565Z,21.81
2017-05-07T12:04:50.135Z,21.77
2017-05-07T12:05:50.075Z,21.74
2017-05-07T12:06:50.385Z,21.79
2017-05-07T12:07:50.466Z,21.62
2017-05-07T12:08:50.059Z,21.52
2017-05-07T12:09:50.103Z,21.49
2017-05-07T12:10:50.019Z,21.33
2017-05-07T12:11:50.428Z,21.41
2017-05-07T12:12:50.425Z,21.4
2017-05-07T12:13:50.307Z,21.36
2017-05-07T12:14:49.973Z,21.37
2017-05-07T12:15:49.986Z,21.28
2017-05-07T12:16:50.277Z,21.07
2017-05-07T12:17:50.317Z,21.03
2017-05-07T12:18:49.932Z,20.78
2017-05-07T12:19:49.942Z,20.66
2017-05-07T12:20:50.316Z,20.47
2017-05-07T12:21:50.212Z,20.54
2017-05-07T12:22:50.192Z,20.58
2017-05-07T12:23:49.867Z,20.36
2017-05-07T12:24:50.302Z,20.4
2017-05-07T12:25:50.164Z,20.33
2017-05-07T12:26:50.154Z,20.31
2017-05-07T12:27:50.133Z,20.4
2017-05-07T12:28:50.133Z,20.32
2017-05-07T12:29:50.102Z,20.28
2017-05-07T12:30:50.087Z,20.33
2017-05-07T12:31:50.090Z,20.38
2017-05-07T12:32:49.763Z,20.35
2017-05-07T12:33:50.045Z,20.4
2017-05-07T12:34:49.731Z,20.32
2017-05-07T12:35:50.015Z,20.22
2017-05-07T12:36:50.017Z,20.2
2017-05-07T12:37:49.692Z,20.2
2017-05-07T12:38:50.063Z,20.22
2017-05-07T12:39:49.366Z,20.2
2017-05-07T12:40:49.352Z,20.2
2017-05-07T12:41:49.657Z,20.22
2017-05-07T12:42:49.940Z,20.28
2017-05-07T12:43:49.619Z,20.25
2017-05-07T12:44:49.904Z,20.11
2017-05-07T12:45:49.912Z,20.1
2017-05-07T12:46:49.274Z,19.89
2017-05-07T12:47:49.259Z,19.89
2017-05-07T12:48:49.572Z,19.92
2017-05-07T12:49:49.537Z,19.93
2017-05-07T12:50:49.550Z,19.99
2017-05-07T12:51:49.520Z,19.98
2017-05-07T12:52:49.502Z,20.03
2017-05-07T12:53:49.793Z,20.03
2017-05-07T12:54:49.173Z,19.96
2017-05-07T12:55:49.475Z,19.98